createdAt,value
2019-01-12T06:30:35.648Z,14.07
2019-01-12T06:33:04.619Z,11.63
2019-01-12T06:35:33.594Z,14.20
2019-01-12T06:38:02.574Z,8.80
2019-01-12T06:40:31.548Z,10.57
2019-01-12T06:43:00.539Z,10.80
2019-01-12T06:45:48.915Z,10.73
2019-01-12T06:48:17.922Z,13.63
2019-01-12T06:50:46.894Z,12.50
2019-01-12T06:53:15.886Z,11.37
2019-01-12T06:55:44.859Z,8.60
2019-01-12T06:58:13.836Z,8.33
2019-01-12T07:00:42.846Z,10.53
2019-01-12T07:03:11.834Z,10.03
2019-01-12T07:05:40.823Z,9.13
2019-01-12T07:08:09.806Z,12.07
2019-01-12T07:10:38.805Z,6.50
2019-01-12T07:13:07.772Z,8.97
2019-01-12T07:15:36.774Z,7.63
2019-01-12T07:18:08.974Z,7.87
2019-01-12T07:20:38.083Z,7.37
2019-01-12T07:23:07.162Z,7.33
2019-01-12T07:25:36.146Z,5.93
2019-01-12T07:28:05.126Z,8.53
2019-01-12T07:30:34.174Z,7.03
2019-01-12T07:33:03.171Z,6.07
2019-01-12T07:35:32.139Z,7.47
2019-01-12T07:38:01.111Z,7.70
2019-01-12T07:40:30.090Z,6.63
2019-01-12T07:42:59.082Z,6.17
2019-01-12T07:45:28.056Z,5.87
2019-01-12T07:47:57.018Z,4.87
2019-01-12T07:50:26.002Z,4.47
2019-01-12T07:52:55.018Z,6.20
2019-01-12T07:55:23.991Z,3.87
2019-01-12T07:57:52.977Z,7.00
2019-01-12T08:00:22.015Z,5.97
2019-01-12T08:02:51.360Z,4.23
2019-01-12T08:05:20.707Z,5.67
2019-01-12T08:07:49.674Z,5.30
2019-01-12T08:10:20.106Z,2.57
2019-01-12T08:12:49.081Z,3.90
2019-01-12T08:15:18.047Z,4.10
2019-01-12T08:17:47.087Z,3.00
2019-01-12T08:20:16.058Z,2.70
2019-01-12T08:22:45.106Z,3.47
2019-01-12T08:25:14.090Z,3.20
2019-01-12T08:27:43.058Z,3.97
2019-01-12T08:30:13.563Z,3.87
2019-01-12T08:32:42.607Z,2.63
2019-01-12T08:35:11.704Z,2.97
2019-01-12T08:37:40.708Z,5.10
2019-01-12T08:40:10.760Z,5.87
2019-01-12T08:42:39.733Z,5.93
2019-01-12T08:45:09.673Z,5.67
2019-01-12T08:47:38.642Z,4.63
2019-01-12T08:50:09.170Z,5.10
2019-01-12T08:52:38.138Z,4.90
2019-01-12T08:55:08.315Z,3.87
2019-01-12T08:57:37.508Z,6.23
2019-01-12T09:00:13.795Z,3.53
2019-01-12T09:02:42.758Z,4.50
2019-01-12T09:05:11.746Z,6.17
2019-01-12T09:07:40.726Z,6.33
2019-01-12T09:10:11.165Z,3.83
2019-01-12T09:12:40.134Z,4.50
2019-01-12T09:15:09.892Z,5.63
2019-01-12T09:17:38.943Z,4.43
2019-01-12T09:20:09.391Z,4.07
2019-01-12T09:22:39.789Z,3.20
2019-01-12T09:25:09.175Z,2.63
2019-01-12T09:27:38.146Z,4.27
2019-01-12T09:30:08.662Z,2.27
2019-01-12T09:32:37.634Z,2.83
2019-01-12T09:35:06.638Z,2.57
2019-01-12T09:37:35.749Z,3.40
2019-01-12T09:40:06.294Z,3.83
2019-01-12T09:42:35.277Z,5.53
2019-01-12T09:45:05.724Z,3.43
2019-01-12T09:47:34.774Z,4.43
2019-01-12T09:50:05.542Z,4.83
2019-01-12T09:52:34.612Z,5.40
2019-01-12T09:55:04.123Z,4.73
2019-01-12T09:57:33.111Z,4.73
2019-01-12T10:00:02.166Z,4.53
2019-01-12T10:02:31.164Z,5.33
2019-01-12T10:05:00.158Z,4.93
2019-01-12T10:07:29.177Z,4.73
2019-01-12T10:09:58.154Z,5.83
2019-01-12T10:12:27.127Z,4.43
2019-01-12T10:14:56.151Z,5.07
2019-01-12T10:17:25.137Z,3.97
2019-01-12T10:19:54.121Z,4.00
2019-01-12T10:22:28.556Z,4.30
2019-01-12T10:24:53.801Z,3.80
2019-01-12T10:27:22.767Z,5.37
2019-01-12T10:29:51.767Z,6.23
2019-01-12T10:32:20.730Z,3.97
2019-01-12T10:34:49.713Z,3.83
2019-01-12T10:37:19.310Z,5.23
2019-01-12T10:39:48.378Z,5.90
2019-01-12T10:42:17.346Z,4.70
2019-01-12T10:44:46.338Z,5.37
2019-01-12T10:47:15.318Z,4.07
2019-01-12T10:49:44.293Z,4.63
2019-01-12T10:52:13.262Z,6.50
2019-01-12T10:54:42.322Z,5.27
2019-01-12T10:57:11.295Z,5.23
2019-01-12T10:59:40.286Z,5.33
2019-01-12T11:02:09.323Z,5.67
2019-01-12T11:04:38.299Z,5.63
2019-01-12T11:07:08.911Z,5.40
2019-01-12T11:09:37.938Z,6.40
2019-01-12T11:12:06.946Z,6.43
2019-01-12T11:14:35.914Z,6.97
2019-01-12T11:17:04.878Z,6.53
2019-01-12T11:19:33.854Z,8.80
2019-01-12T11:22:02.833Z,8.50
2019-01-12T11:24:31.935Z,7.07
2019-01-12T11:27:00.904Z,8.03
2019-01-12T11:29:29.882Z,8.97
2019-01-12T11:31:58.868Z,10.37
2019-01-12T11:34:27.834Z,11.10
2019-01-12T11:36:56.815Z,12.53
2019-01-12T11:39:25.805Z,12.13
2019-01-12T11:41:54.794Z,10.93
2019-01-12T11:44:23.775Z,12.50
2019-01-12T11:46:52.750Z,10.67
2019-01-12T11:49:21.747Z,13.13
2019-01-12T11:51:53.215Z,12.73
2019-01-12T11:54:22.231Z,10.83
2019-01-12T11:56:51.230Z,10.93
2019-01-12T11:59:20.204Z,12.73
2019-01-12T12:01:49.250Z,11.33
2019-01-12T12:04:18.243Z,11.67
2019-01-12T12:06:47.218Z,11.70
2019-01-12T12:09:16.223Z,11.67
2019-01-12T12:11:45.240Z,12.13
2019-01-12T12:14:14.194Z,12.47
2019-01-12T12:16:43.198Z,12.53
2019-01-12T12:19:12.174Z,15.63
2019-01-12T12:21:41.151Z,15.57
2019-01-12T12:24:10.242Z,14.63
2019-01-12T12:26:39.378Z,13.93
2019-01-12T12:29:08.387Z,14.97
2019-01-12T12:31:37.392Z,15.50
2019-01-12T12:34:06.350Z,17.57
2019-01-12T12:36:35.601Z,17.50
2019-01-12T12:39:06.539Z,17.70
2019-01-12T12:41:35.564Z,15.10
2019-01-12T12:44:04.608Z,17.07
2019-01-12T12:46:33.690Z,16.17
2019-01-12T12:49:02.673Z,17.27
2019-01-12T12:51:32.286Z,14.73
2019-01-12T12:54:01.262Z,17.73
2019-01-12T12:56:30.539Z,18.23
2019-01-12T12:58:59.626Z,18.63
2019-01-12T13:01:28.699Z,15.33
2019-01-12T13:03:57.770Z,17.37
2019-01-12T13:06:26.752Z,18.00
2019-01-12T13:08:55.816Z,22.03
2019-01-12T13:11:24.815Z,17.70
2019-01-12T13:14:13.119Z,18.77
2019-01-12T14:10:45.444Z,18.13
2019-01-12T16:10:35.962Z,20.50
2019-01-12T16:13:04.942Z,21.10
2019-01-12T16:15:33.918Z,19.30
2019-01-12T16:18:02.937Z,25.43
2019-01-12T16:20:33.491Z,21.03
2019-01-12T16:23:02.462Z,21.57
2019-01-12T16:25:31.487Z,21.00
2019-01-12T16:28:00.462Z,21.43
2019-01-12T16:30:29.459Z,16.53
2019-01-12T16:32:58.443Z,18.70
2019-01-12T16:35:27.415Z,17.37
2019-01-12T16:37:56.414Z,19.33
2019-01-12T16:40:25.854Z,19.00
2019-01-12T16:42:54.826Z,20.53
2019-01-12T16:45:23.813Z,18.87
2019-01-12T16:47:52.783Z,19.60
2019-01-12T16:50:21.774Z,21.17
2019-01-12T16:52:50.771Z,18.00
2019-01-12T16:55:19.750Z,20.17
2019-01-12T16:57:48.742Z,19.50
2019-01-12T17:00:19.554Z,15.70
2019-01-12T17:02:48.534Z,16.37
2019-01-12T17:05:17.527Z,16.37
2019-01-12T17:07:47.120Z,18.50
2019-01-12T17:10:17.402Z,14.53
2019-01-12T17:12:46.557Z,14.47
2019-01-12T17:15:16.562Z,14.50
2019-01-12T17:17:45.570Z,14.93
2019-01-12T17:20:15.950Z,17.67
2019-01-12T17:22:45.207Z,13.03
2019-01-12T17:25:14.167Z,13.73
2019-01-12T17:27:43.138Z,14.60
2019-01-12T17:30:16.114Z,13.60
2019-01-12T17:32:45.170Z,13.57
2019-01-12T17:35:14.302Z,12.70
2019-01-12T17:37:43.488Z,12.13
2019-01-12T17:40:13.108Z,12.60
2019-01-12T17:42:42.095Z,14.23
2019-01-12T17:45:12.238Z,13.20
2019-01-12T17:47:41.206Z,10.33
2019-01-12T17:50:11.559Z,12.20
2019-01-12T17:52:40.534Z,12.90
2019-01-12T17:55:12.307Z,10.00
2019-01-12T17:57:41.468Z,11.30
2019-01-12T18:00:16.334Z,12.53
2019-01-12T18:02:45.298Z,9.87
2019-01-12T18:05:14.283Z,11.00
2019-01-12T18:07:43.251Z,9.60
2019-01-12T18:10:13.194Z,10.40
2019-01-12T18:12:42.235Z,9.77
2019-01-12T18:15:12.734Z,9.00
2019-01-12T18:17:41.694Z,9.43
2019-01-12T18:20:12.221Z,8.07
2019-01-12T18:22:41.246Z,8.57
2019-01-12T18:25:11.102Z,8.27
2019-01-12T18:27:40.078Z,8.20
2019-01-12T18:30:10.643Z,8.13
2019-01-12T18:32:39.610Z,7.00
2019-01-12T18:35:08.642Z,6.17
2019-01-12T18:37:37.698Z,7.37
2019-01-12T18:40:11.246Z,6.17
2019-01-12T18:42:40.230Z,7.47
2019-01-12T18:45:11.340Z,5.33
2019-01-12T18:47:40.398Z,6.40
2019-01-12T18:50:10.933Z,7.10
2019-01-12T18:52:39.919Z,7.07
2019-01-12T18:55:09.946Z,9.33
2019-01-12T18:57:38.923Z,10.40
2019-01-12T19:00:09.427Z,10.07
2019-01-12T19:02:38.400Z,6.63
2019-01-12T19:05:07.477Z,6.90
2019-01-12T19:07:36.439Z,6.67
2019-01-12T19:10:07.075Z,6.50
2019-01-12T19:12:36.050Z,7.40
2019-01-12T19:15:24.457Z,7.40
2019-01-12T19:17:53.447Z,5.67
2019-01-12T19:20:22.430Z,7.37
2019-01-12T19:22:51.413Z,6.53
2019-01-12T19:25:20.457Z,7.20
2019-01-12T19:27:49.423Z,6.83
2019-01-12T19:30:22.089Z,7.03
2019-01-12T19:32:51.219Z,5.23
2019-01-12T19:35:20.191Z,6.83
2019-01-12T19:37:49.227Z,5.40
2019-01-12T19:40:19.287Z,8.30
2019-01-12T19:42:48.315Z,6.10
2019-01-12T19:45:17.275Z,6.70
2019-01-12T19:47:46.254Z,6.43
2019-01-12T19:50:19.134Z,6.37
2019-01-12T19:52:48.099Z,5.80
2019-01-12T19:55:17.063Z,5.93
2019-01-12T19:57:46.064Z,7.27
2019-01-12T20:00:22.454Z,6.97
2019-01-12T20:02:51.454Z,6.97
2019-01-12T20:05:20.437Z,5.47
2019-01-12T20:07:49.471Z,8.10
2019-01-12T20:10:18.713Z,12.00
2019-01-12T20:12:47.694Z,10.03
2019-01-12T20:15:17.946Z,8.13
2019-01-12T20:17:46.928Z,8.10
2019-01-12T20:20:16.279Z,7.20
2019-01-12T20:22:45.260Z,8.23
2019-01-12T20:25:15.903Z,8.43
2019-01-12T20:27:44.886Z,8.10
2019-01-12T20:30:18.354Z,7.60
2019-01-12T20:33:06.950Z,6.00
2019-01-12T20:35:37.468Z,5.50
2019-01-12T20:38:07.977Z,5.13
2019-01-12T20:40:38.503Z,7.03
2019-01-12T20:43:17.834Z,9.13
2019-01-12T20:45:54.098Z,7.97
2019-01-12T20:48:24.615Z,7.60
2019-01-12T20:50:55.325Z,6.43
2019-01-12T20:53:25.821Z,6.03
2019-01-12T20:55:59.143Z,6.87
2019-01-12T20:58:35.530Z,6.27
2019-01-12T21:01:11.931Z,5.97
2019-01-12T21:03:48.527Z,5.20
2019-01-12T21:06:35.608Z,5.13
2019-01-12T21:09:15.139Z,6.00
2019-01-12T21:11:45.648Z,5.47
2019-01-12T21:14:21.886Z,5.63
2019-01-12T21:16:50.945Z,4.90
2019-01-12T21:19:19.935Z,5.37
2019-01-12T21:21:48.906Z,6.83
2019-01-12T21:24:17.874Z,5.70
2019-01-12T21:26:46.850Z,6.83
2019-01-12T21:29:15.823Z,8.37
2019-01-12T21:31:44.827Z,6.20
2019-01-12T21:34:13.818Z,8.60
2019-01-12T21:36:42.799Z,11.73
2019-01-12T21:39:11.797Z,7.83
2019-01-12T21:41:40.779Z,8.73
2019-01-12T21:44:09.752Z,9.40
2019-01-12T21:46:39.303Z,9.37
2019-01-12T21:49:08.375Z,8.40
2019-01-12T21:51:38.057Z,9.03
2019-01-12T21:54:07.175Z,8.17
2019-01-12T21:56:36.151Z,8.50
2019-01-12T21:59:05.123Z,8.60
2019-01-12T22:01:36.355Z,6.40
2019-01-12T22:04:05.533Z,7.47
2019-01-12T22:06:34.865Z,5.67
2019-01-12T22:09:05.450Z,5.50
2019-01-12T22:11:34.515Z,4.37
2019-01-12T22:14:03.650Z,2.90
2019-01-12T22:16:33.594Z,2.50
2019-01-12T22:19:02.583Z,1.27
2019-01-12T22:21:31.547Z,1.23
2019-01-12T22:24:00.532Z,1.97
2019-01-12T22:26:29.506Z,1.00
2019-01-12T22:28:58.474Z,0.70
2019-01-12T22:31:28.398Z,1.53
2019-01-12T22:33:57.366Z,1.43
2019-01-12T22:36:26.338Z,2.13
2019-01-12T22:38:55.314Z,0.73
2019-01-12T22:41:24.286Z,2.40
2019-01-12T22:43:53.286Z,1.13
2019-01-12T22:46:22.254Z,1.20
2019-01-12T22:48:51.276Z,2.27
2019-01-12T22:51:22.541Z,1.20
2019-01-12T22:53:51.598Z,1.40
2019-01-12T22:56:20.580Z,1.80
2019-01-12T22:58:49.559Z,2.57
2019-01-12T23:01:20.090Z,2.80
2019-01-12T23:03:49.106Z,1.90
2019-01-12T23:06:18.074Z,2.10
2019-01-12T23:08:47.046Z,2.47
2019-01-12T23:11:16.111Z,2.47
2019-01-12T23:13:45.111Z,4.23
2019-01-12T23:16:14.263Z,2.70
2019-01-12T23:18:43.306Z,2.93
2019-01-12T23:21:12.350Z,4.13
2019-01-12T23:23:41.350Z,3.20
2019-01-12T23:26:10.328Z,3.07
2019-01-12T23:28:39.286Z,2.90
2019-01-12T23:31:08.486Z,3.50
2019-01-12T23:33:37.455Z,3.67
2019-01-12T23:36:06.445Z,2.77
2019-01-12T23:38:35.418Z,3.77
2019-01-12T23:41:04.454Z,3.23
2019-01-12T23:43:33.431Z,3.07
2019-01-12T23:46:02.398Z,3.93
2019-01-12T23:48:31.372Z,2.20
2019-01-12T23:51:00.783Z,4.93
2019-01-12T23:53:29.752Z,2.90
2019-01-12T23:55:58.722Z,4.37
2019-01-12T23:58:27.769Z,2.30
